Monday, December 18, 2017, 3:37 PM EST
Back to Local

KOXC, Oxford, Waterbury-oxford Airport

Location: Oxford, CT, United States Lat: 41.483
Local Time: 3:37 PM EST (20:37 GMT) Lon: -73.133
Time Zone: US/Eastern Elev: 725 ft

Show me the last for .
Show Decoded

2017-12-18 15:15 METAR KOXC 182015Z 00000KT 10SM SCT007 BKN050 OVC065 03/M02 A2995 RMK AO2 =
2017-12-18 14:51 METAR KOXC 181951Z 00000KT 10SM BKN007 OVC050 02/M02 A2995 RMK AO2 SLP163
                 T00221022 =
2017-12-18 13:51 METAR KOXC 181851Z 00000KT 10SM OVC007 02/M03 A2996 RMK AO2 SLP167 T00171033 =
2017-12-18 12:51 METAR KOXC 181751Z 34003KT 10SM OVC007 01/M03 A3000 RMK AO2 SLP181 60000
                 T00111033 10017 21033 58027 =
2017-12-18 12:16 METAR KOXC 181716Z 00000KT 10SM OVC009 01/M04 A3002 RMK AO2 =
2017-12-18 11:51 METAR KOXC 181651Z 00000KT 10SM OVC011 01/M04 A3004 RMK AO2 CIG 009V013 SLP192
                 T00061044 =
2017-12-18 10:51 METAR KOXC 181551Z 14003KT 10SM OVC013 01/M04 A3005 RMK AO2 SLP199 T00111044 =
2017-12-18 09:51 METAR KOXC 181451Z 00000KT 10SM OVC011 M01/M06 A3008 RMK AO2 SLP207 60000
                 T10061056 58014 =
2017-12-18 08:51 METAR KOXC 181351Z 05003KT 10SM OVC013 M02/M07 A3011 RMK AO2 SLP216 T10221067 =
2017-12-18 07:51 METAR KOXC 181251Z 00000KT 10SM SCT015 OVC070 M03/M07 A3010 RMK AO2 SNE03 SLP216
                 P0000 T10281072 =
2017-12-18 06:51 METAR KOXC 181151Z 09003KT 9SM -SN OVC015 M03/M08 A3012 RMK AO2 SNE09B25 SLP223
                 P0000 60000 T10331078 11028 21033 58007 =
2017-12-18 05:51 METAR KOXC 181051Z AUTO 00000KT 9SM -SN OVC015 M03/M08 A3013 RMK AO2 SLP225
                 P0000 T10331083 FZRANO =
2017-12-18 04:51 METAR KOXC 180951Z AUTO 09003KT 5SM -SN OVC015 M03/M09 A3014 RMK AO2 SLP229
                 P0000 T10281094 FZRANO =
2017-12-18 03:51 METAR KOXC 180851Z AUTO 06003KT 9SM -SN OVC015 M03/M09 A3015 RMK AO2 SNB41
                 SLP229 P0000 60000 T10281089 58009 FZRANO =
2017-12-18 02:51 METAR KOXC 180751Z AUTO 00000KT 10SM OVC015 M03/M09 A3017 RMK AO2 SLP238
                 T10281094 FZRANO =
2017-12-18 01:51 METAR KOXC 180651Z AUTO 00000KT 10SM OVC015 M03/M09 A3017 RMK AO2 SLP237
                 T10281089 FZRANO =
2017-12-18 00:51 METAR KOXC 180551Z AUTO 00000KT 10SM OVC015 M03/M09 A3017 RMK AO2 SLP237 60000
                 T10281094 11028 21033 58015 FZRANO =
2017-12-18 00:10 METAR KOXC 180510Z AUTO 00000KT 10SM BKN019 BKN060 OVC110 M03/M10 A3018 RMK AO2
                 FZRANO =
2017-12-17 23:51 METAR KOXC 180451Z AUTO 00000KT 10SM FEW019 BKN060 OVC100 M03/M10 A3019 RMK AO2
                 SLP243 T10281100 400061117 FZRANO =
2017-12-17 22:51 METAR KOXC 180351Z AUTO 06003KT 10SM BKN100 M03/M10 A3021 RMK AO2 UPB0257E08
                 SLP251 P0000 T10331100 FZRANO =
2017-12-17 21:51 METAR KOXC 180251Z AUTO 00000KT 10SM SCT043 OVC060 M03/M09 A3022 RMK AO2 SLP254
                 T10281094 58007 FZRANO =
2017-12-17 20:51 METAR KOXC 180151Z 00000KT 10SM BKN070 OVC090 M03/M10 A3024 RMK AO2 SLP263
                 T10281100 =
2017-12-17 19:51 METAR KOXC 180051Z 00000KT 10SM OVC100 M03/M11 A3025 RMK AO2 SLP270 T10281106 =
2017-12-17 18:51 METAR KOXC 172351Z 00000KT 10SM CLR M03/M12 A3024 RMK AO2 SLP265 T10331117 10006
                 21033 53007 =
2017-12-17 17:51 METAR KOXC 172251Z 00000KT 10SM CLR M03/M12 A3023 RMK AO2 SLP260 T10331117 =
2017-12-17 16:51 METAR KOXC 172151Z 30003KT 10SM CLR M02/M11 A3022 =
2017-12-17 15:51 METAR KOXC 172051Z 30003KT 10SM CLR M02/M11 A3022 RMK AO2 SLP258 T10171111 55003
                 =

Support USWX by starting your Amazon purchase here.